sensor_id;sensor_type;location;lat;lon;timestamp;pressure;altitude;pressure_sealevel;temperature;humidity
73063;BME280;61230;46.328;19.972;2022-09-03T00:02:50;100736.69;;;14.17;96.16
73063;BME280;61230;46.328;19.972;2022-09-03T00:05:23;100733.53;;;14.13;95.94
73063;BME280;61230;46.328;19.972;2022-09-03T00:13:43;100739.47;;;14.07;95.79
73063;BME280;61230;46.328;19.972;2022-09-03T00:16:14;100742.78;;;14.09;95.54
73063;BME280;61230;46.328;19.972;2022-09-03T00:18:48;100743.09;;;14.06;95.62
73063;BME280;61230;46.328;19.972;2022-09-03T00:21:31;100751.03;;;14.06;95.67
73063;BME280;61230;46.328;19.972;2022-09-03T00:24:03;100749.66;;;14.02;95.59
73063;BME280;61230;46.328;19.972;2022-09-03T00:26:38;100748.03;;;14.01;95.79
73063;BME280;61230;46.328;19.972;2022-09-03T00:29:13;100750.13;;;13.98;96.13
73063;BME280;61230;46.328;19.972;2022-09-03T00:31:55;100745.50;;;14.00;95.90
73063;BME280;61230;46.328;19.972;2022-09-03T00:34:30;100754.59;;;13.97;95.91
73063;BME280;61230;46.328;19.972;2022-09-03T00:36:59;100740.53;;;13.97;96.12
73063;BME280;61230;46.328;19.972;2022-09-03T00:39:27;100742.03;;;13.99;95.80
73063;BME280;61230;46.328;19.972;2022-09-03T00:42:11;100744.19;;;13.96;95.89
73063;BME280;61230;46.328;19.972;2022-09-03T00:44:49;100749.09;;;13.91;95.79
73063;BME280;61230;46.328;19.972;2022-09-03T00:59:06;100764.16;;;13.72;95.55
73063;BME280;61230;46.328;19.972;2022-09-03T01:04:57;100765.44;;;13.68;94.90
73063;BME280;61230;46.328;19.972;2022-09-03T01:13:57;100772.41;;;13.52;95.06
73063;BME280;61230;46.328;19.972;2022-09-03T01:25:14;100787.72;;;13.48;95.77
73063;BME280;61230;46.328;19.972;2022-09-03T01:30:58;100798.28;;;13.48;96.22
73063;BME280;61230;46.328;19.972;2022-09-03T01:33:37;100791.44;;;13.55;96.39
73063;BME280;61230;46.328;19.972;2022-09-03T01:36:18;100787.72;;;13.66;96.24
73063;BME280;61230;46.328;19.972;2022-09-03T01:39:13;100797.25;;;13.59;95.98
73063;BME280;61230;46.328;19.972;2022-09-03T01:41:59;100798.38;;;13.74;95.88
73063;BME280;61230;46.328;19.972;2022-09-03T01:54:11;100795.22;;;13.70;96.67
73063;BME280;61230;46.328;19.972;2022-09-03T01:59:44;100798.97;;;13.68;96.31
73063;BME280;61230;46.328;19.972;2022-09-03T02:02:23;100785.09;;;13.66;96.97
73063;BME280;61230;46.328;19.972;2022-09-03T02:07:59;100788.31;;;13.95;95.55
73063;BME280;61230;46.328;19.972;2022-09-03T02:10:43;100794.50;;;14.04;95.29
73063;BME280;61230;46.328;19.972;2022-09-03T02:15:46;100807.06;;;14.02;94.87
73063;BME280;61230;46.328;19.972;2022-09-03T02:18:23;100805.31;;;14.10;94.72
73063;BME280;61230;46.328;19.972;2022-09-03T02:20:53;100808.62;;;14.12;94.86
73063;BME280;61230;46.328;19.972;2022-09-03T02:23:22;100806.66;;;14.14;94.63
73063;BME280;61230;46.328;19.972;2022-09-03T02:25:57;100809.66;;;14.19;94.70
73063;BME280;61230;46.328;19.972;2022-09-03T02:28:28;100802.44;;;14.21;94.61
73063;BME280;61230;46.328;19.972;2022-09-03T02:30:57;100805.22;;;14.20;94.57
73063;BME280;61230;46.328;19.972;2022-09-03T02:33:26;100797.22;;;14.12;94.45
73063;BME280;61230;46.328;19.972;2022-09-03T02:35:53;100806.66;;;14.14;94.74
73063;BME280;61230;46.328;19.972;2022-09-03T02:38:24;100800.75;;;14.20;94.35
73063;BME280;61230;46.328;19.972;2022-09-03T02:40:53;100801.41;;;14.22;94.65
73063;BME280;61230;46.328;19.972;2022-09-03T02:43:26;100802.63;;;14.28;94.13
73063;BME280;61230;46.328;19.972;2022-09-03T02:46:02;100799.47;;;14.24;93.88
73063;BME280;61230;46.328;19.972;2022-09-03T02:48:30;100798.16;;;14.28;93.70
73063;BME280;61230;46.328;19.972;2022-09-03T02:50:58;100799.47;;;14.24;93.89
73063;BME280;61230;46.328;19.972;2022-09-03T02:53:26;100799.16;;;14.27;93.85
73063;BME280;61230;46.328;19.972;2022-09-03T02:55:59;100799.47;;;14.24;94.02
73063;BME280;61230;46.328;19.972;2022-09-03T02:58:28;100803.41;;;14.20;94.22
73063;BME280;61230;46.328;19.972;2022-09-03T03:00:58;100803.09;;;14.23;94.17
73063;BME280;61230;46.328;19.972;2022-09-03T03:03:25;100801.62;;;14.29;94.34
73063;BME280;61230;46.328;19.972;2022-09-03T03:05:55;100810.84;;;13.64;97.76
73063;BME280;61230;46.328;19.972;2022-09-03T03:08:25;100806.81;;;14.13;96.19
73063;BME280;61230;46.328;19.972;2022-09-03T03:10:56;100809.22;;;14.24;95.00
73063;BME280;61230;46.328;19.972;2022-09-03T03:13:26;100809.97;;;14.16;94.96
73063;BME280;61230;46.328;19.972;2022-09-03T03:15:58;100808.75;;;13.67;97.46
73063;BME280;61230;46.328;19.972;2022-09-03T03:18:26;100810.53;;;14.02;96.20
73063;BME280;61230;46.328;19.972;2022-09-03T03:20:54;100802.50;;;14.12;95.62
73063;BME280;61230;46.328;19.972;2022-09-03T03:23:22;100801.22;;;14.16;95.66
73063;BME280;61230;46.328;19.972;2022-09-03T03:25:50;100799.91;;;14.20;95.36
73063;BME280;61230;46.328;19.972;2022-09-03T03:28:18;100803.75;;;14.25;94.96
73063;BME280;61230;46.328;19.972;2022-09-03T03:30:46;100805.78;;;14.31;94.75
73063;BME280;61230;46.328;19.972;2022-09-03T03:33:15;100811.66;;;14.35;94.28
73063;BME280;61230;46.328;19.972;2022-09-03T03:35:43;100810.13;;;14.32;93.75
73063;BME280;61230;46.328;19.972;2022-09-03T03:38:10;100809.31;;;14.32;93.91
73063;BME280;61230;46.328;19.972;2022-09-03T03:40:38;100806.50;;;14.33;94.13
73063;BME280;61230;46.328;19.972;2022-09-03T03:43:06;100810.19;;;14.41;93.64
73063;BME280;61230;46.328;19.972;2022-09-03T03:45:33;100821.62;;;14.41;93.96
73063;BME280;61230;46.328;19.972;2022-09-03T03:48:01;100813.97;;;14.38;93.67
73063;BME280;61230;46.328;19.972;2022-09-03T03:50:29;100817.28;;;14.40;93.39
73063;BME280;61230;46.328;19.972;2022-09-03T03:52:59;100811.78;;;14.33;93.61
73063;BME280;61230;46.328;19.972;2022-09-03T03:55:28;100817.59;;;14.37;93.91
73063;BME280;61230;46.328;19.972;2022-09-03T03:58:01;100818.09;;;14.32;93.88
73063;BME280;61230;46.328;19.972;2022-09-03T04:00:29;100815.53;;;14.31;93.60
73063;BME280;61230;46.328;19.972;2022-09-03T04:02:58;100823.37;;;14.32;93.82
73063;BME280;61230;46.328;19.972;2022-09-03T04:05:25;100823.47;;;14.31;93.81
73063;BME280;61230;46.328;19.972;2022-09-03T04:07:53;100828.09;;;14.29;94.07
73063;BME280;61230;46.328;19.972;2022-09-03T04:10:21;100834.06;;;14.31;94.58
73063;BME280;61230;46.328;19.972;2022-09-03T04:12:48;100826.69;;;14.34;94.57
73063;BME280;61230;46.328;19.972;2022-09-03T04:15:16;100831.81;;;14.36;94.23
73063;BME280;61230;46.328;19.972;2022-09-03T04:17:44;100829.87;;;14.38;94.23
73063;BME280;61230;46.328;19.972;2022-09-03T04:20:11;100833.34;;;14.38;94.40
73063;BME280;61230;46.328;19.972;2022-09-03T04:22:39;100835.84;;;14.40;93.88
73063;BME280;61230;46.328;19.972;2022-09-03T04:25:07;100832.88;;;14.43;94.12
73063;BME280;61230;46.328;19.972;2022-09-03T04:27:34;100835.84;;;14.40;93.83
73063;BME280;61230;46.328;19.972;2022-09-03T04:30:02;100841.28;;;14.38;93.67
73063;BME280;61230;46.328;19.972;2022-09-03T04:32:31;100839.94;;;14.34;94.16
73063;BME280;61230;46.328;19.972;2022-09-03T04:35:19;100840.28;;;14.39;94.08
73063;BME280;61230;46.328;19.972;2022-09-03T04:37:47;100850.25;;;14.46;93.71
73063;BME280;61230;46.328;19.972;2022-09-03T04:40:15;100845.94;;;14.45;94.02
73063;BME280;61230;46.328;19.972;2022-09-03T04:42:42;100849.34;;;14.55;94.19
73063;BME280;61230;46.328;19.972;2022-09-03T04:45:10;100856.34;;;14.64;93.88
73063;BME280;61230;46.328;19.972;2022-09-03T04:47:38;100855.97;;;14.59;93.56
73063;BME280;61230;46.328;19.972;2022-09-03T04:50:06;100862.28;;;14.58;94.01
73063;BME280;61230;46.328;19.972;2022-09-03T04:52:34;100861.34;;;14.67;93.72
73063;BME280;61230;46.328;19.972;2022-09-03T04:55:01;100868.28;;;14.68;93.70
73063;BME280;61230;46.328;19.972;2022-09-03T04:57:29;100870.53;;;14.55;94.14
73063;BME280;61230;46.328;19.972;2022-09-03T05:00:03;100868.88;;;14.36;95.06
73063;BME280;61230;46.328;19.972;2022-09-03T05:02:31;100866.16;;;14.46;94.56
73063;BME280;61230;46.328;19.972;2022-09-03T05:04:58;100864.22;;;13.95;97.03
73063;BME280;61230;46.328;19.972;2022-09-03T05:07:26;100865.84;;;14.13;96.77
73063;BME280;61230;46.328;19.972;2022-09-03T05:09:55;100857.59;;;14.16;96.43
73063;BME280;61230;46.328;19.972;2022-09-03T05:12:23;100858.06;;;14.47;95.33
73063;BME280;61230;46.328;19.972;2022-09-03T05:14:50;100854.00;;;14.61;94.47
73063;BME280;61230;46.328;19.972;2022-09-03T05:17:18;100853.00;;;14.62;93.77
73063;BME280;61230;46.328;19.972;2022-09-03T05:19:46;100850.56;;;14.68;94.29
73063;BME280;61230;46.328;19.972;2022-09-03T05:22:13;100859.34;;;14.43;94.84
73063;BME280;61230;46.328;19.972;2022-09-03T05:24:47;100862.09;;;14.59;94.15
73063;BME280;61230;46.328;19.972;2022-09-03T05:27:15;100861.81;;;14.45;95.02
73063;BME280;61230;46.328;19.972;2022-09-03T05:29:43;100869.66;;;14.72;94.55
73063;BME280;61230;46.328;19.972;2022-09-03T05:32:11;100868.03;;;15.13;93.54
73063;BME280;61230;46.328;19.972;2022-09-03T05:34:40;100871.09;;;15.34;92.75
73063;BME280;61230;46.328;19.972;2022-09-03T05:37:07;100865.25;;;15.56;91.40
73063;BME280;61230;46.328;19.972;2022-09-03T05:39:35;100870.94;;;15.69;90.32
73063;BME280;61230;46.328;19.972;2022-09-03T05:42:03;100864.66;;;15.36;91.03
73063;BME280;61230;46.328;19.972;2022-09-03T05:44:32;100860.28;;;15.19;92.64
73063;BME280;61230;46.328;19.972;2022-09-03T05:46:59;100862.75;;;15.55;92.06
73063;BME280;61230;46.328;19.972;2022-09-03T05:49:27;100858.00;;;15.74;90.71
73063;BME280;61230;46.328;19.972;2022-09-03T05:51:56;100858.19;;;15.89;90.55
73063;BME280;61230;46.328;19.972;2022-09-03T05:54:24;100856.34;;;15.81;89.98
73063;BME280;61230;46.328;19.972;2022-09-03T05:56:51;100857.81;;;15.84;90.46
73063;BME280;61230;46.328;19.972;2022-09-03T05:59:19;100864.97;;;15.33;92.42
73063;BME280;61230;46.328;19.972;2022-09-03T06:01:46;100868.28;;;15.77;91.45
73063;BME280;61230;46.328;19.972;2022-09-03T06:04:19;100861.16;;;15.86;91.11
73063;BME280;61230;46.328;19.972;2022-09-03T06:06:47;100864.78;;;15.77;89.80
73063;BME280;61230;46.328;19.972;2022-09-03T06:09:17;100868.41;;;15.68;88.48
73063;BME280;61230;46.328;19.972;2022-09-03T06:11:46;100860.53;;;15.92;87.30
73063;BME280;61230;46.328;19.972;2022-09-03T06:14:16;100860.84;;;16.29;85.08
73063;BME280;61230;46.328;19.972;2022-09-03T06:16:46;100861.00;;;16.52;84.93
73063;BME280;61230;46.328;19.972;2022-09-03T06:19:19;100855.38;;;16.39;85.36
73063;BME280;61230;46.328;19.972;2022-09-03T06:21:47;100847.91;;;16.02;86.45
73063;BME280;61230;46.328;19.972;2022-09-03T06:24:18;100856.69;;;15.86;86.73
73063;BME280;61230;46.328;19.972;2022-09-03T06:26:53;100856.53;;;16.12;86.39
73063;BME280;61230;46.328;19.972;2022-09-03T06:29:20;100861.38;;;16.57;84.35
73063;BME280;61230;46.328;19.972;2022-09-03T06:31:48;100864.66;;;16.27;85.60
73063;BME280;61230;46.328;19.972;2022-09-03T06:34:17;100863.00;;;16.74;84.10
73063;BME280;61230;46.328;19.972;2022-09-03T06:36:45;100860.00;;;16.45;84.48
73063;BME280;61230;46.328;19.972;2022-09-03T06:39:12;100860.34;;;16.01;85.47
73063;BME280;61230;46.328;19.972;2022-09-03T06:41:40;100860.53;;;16.56;84.22
73063;BME280;61230;46.328;19.972;2022-09-03T06:44:08;100862.19;;;16.65;83.28
73063;BME280;61230;46.328;19.972;2022-09-03T06:46:40;100859.19;;;16.60;83.05
73063;BME280;61230;46.328;19.972;2022-09-03T06:49:10;100861.03;;;16.60;82.97
73063;BME280;61230;46.328;19.972;2022-09-03T06:51:38;100859.38;;;17.06;81.77
73063;BME280;61230;46.328;19.972;2022-09-03T06:54:08;100862.38;;;17.03;79.95
73063;BME280;61230;46.328;19.972;2022-09-03T06:56:38;100866.56;;;16.97;81.95
73063;BME280;61230;46.328;19.972;2022-09-03T06:59:12;100873.41;;;17.39;80.09
73063;BME280;61230;46.328;19.972;2022-09-03T07:01:41;100863.66;;;17.62;80.30
73063;BME280;61230;46.328;19.972;2022-09-03T07:04:13;100866.25;;;16.92;82.90
73063;BME280;61230;46.328;19.972;2022-09-03T07:06:43;100869.31;;;17.20;80.83
73063;BME280;61230;46.328;19.972;2022-09-03T07:09:12;100862.50;;;17.64;80.07
73063;BME280;61230;46.328;19.972;2022-09-03T07:11:41;100872.53;;;17.77;78.60
73063;BME280;61230;46.328;19.972;2022-09-03T07:14:16;100872.03;;;17.82;79.26
73063;BME280;61230;46.328;19.972;2022-09-03T07:16:45;100880.75;;;17.29;81.20
73063;BME280;61230;46.328;19.972;2022-09-03T07:19:13;100885.59;;;17.17;82.22
73063;BME280;61230;46.328;19.972;2022-09-03T07:21:42;100871.37;;;17.41;80.56
73063;BME280;61230;46.328;19.972;2022-09-03T07:24:16;100884.63;;;17.65;80.31
73063;BME280;61230;46.328;19.972;2022-09-03T07:26:44;100883.81;;;17.48;80.80
73063;BME280;61230;46.328;19.972;2022-09-03T07:29:16;100879.09;;;17.66;79.04
73063;BME280;61230;46.328;19.972;2022-09-03T07:31:48;100879.91;;;17.36;80.52
73063;BME280;61230;46.328;19.972;2022-09-03T07:34:19;100880.50;;;17.07;80.08
73063;BME280;61230;46.328;19.972;2022-09-03T07:36:48;100878.28;;;17.27;80.64
73063;BME280;61230;46.328;19.972;2022-09-03T07:39:18;100882.88;;;17.41;81.25
73063;BME280;61230;46.328;19.972;2022-09-03T07:41:46;100880.06;;;17.35;80.24
73063;BME280;61230;46.328;19.972;2022-09-03T07:44:17;100878.69;;;17.08;80.96
73063;BME280;61230;46.328;19.972;2022-09-03T07:46:49;100886.06;;;17.37;80.19
73063;BME280;61230;46.328;19.972;2022-09-03T07:49:19;100888.88;;;17.97;78.17
73063;BME280;61230;46.328;19.972;2022-09-03T07:51:48;100889.59;;;18.59;76.62
73063;BME280;61230;46.328;19.972;2022-09-03T07:54:18;100906.03;;;18.62;75.49
73063;BME280;61230;46.328;19.972;2022-09-03T07:56:48;100899.31;;;19.04;73.90
73063;BME280;61230;46.328;19.972;2022-09-03T07:59:15;100895.56;;;18.38;75.74
73063;BME280;61230;46.328;19.972;2022-09-03T08:01:43;100889.59;;;18.73;74.23
73063;BME280;61230;46.328;19.972;2022-09-03T08:04:11;100890.63;;;19.02;70.91
73063;BME280;61230;46.328;19.972;2022-09-03T08:06:38;100888.91;;;18.94;69.73
73063;BME280;61230;46.328;19.972;2022-09-03T08:09:11;100885.88;;;19.41;68.99
73063;BME280;61230;46.328;19.972;2022-09-03T08:11:41;100883.09;;;18.76;71.45
73063;BME280;61230;46.328;19.972;2022-09-03T08:14:11;100884.53;;;18.49;71.58
73063;BME280;61230;46.328;19.972;2022-09-03T08:16:46;100875.28;;;18.89;70.31
73063;BME280;61230;46.328;19.972;2022-09-03T08:19:15;100879.97;;;18.72;68.49
73063;BME280;61230;46.328;19.972;2022-09-03T08:21:44;100886.88;;;19.40;68.30
73063;BME280;61230;46.328;19.972;2022-09-03T08:24:14;100886.03;;;19.25;67.94
73063;BME280;61230;46.328;19.972;2022-09-03T08:26:43;100890.00;;;19.00;69.95
73063;BME280;61230;46.328;19.972;2022-09-03T08:29:18;100890.06;;;19.50;70.39
73063;BME280;61230;46.328;19.972;2022-09-03T08:31:46;100898.50;;;20.04;67.03
73063;BME280;61230;46.328;19.972;2022-09-03T08:34:14;100899.28;;;18.74;70.62
73063;BME280;61230;46.328;19.972;2022-09-03T08:36:44;100893.81;;;19.70;68.19
73063;BME280;61230;46.328;19.972;2022-09-03T08:39:14;100892.06;;;19.77;67.87
73063;BME280;61230;46.328;19.972;2022-09-03T08:44:24;100906.19;;;19.92;67.51
73063;BME280;61230;46.328;19.972;2022-09-03T08:47:00;100901.56;;;19.65;66.60
73063;BME280;61230;46.328;19.972;2022-09-03T08:50:16;100897.72;;;20.25;65.23
73063;BME280;61230;46.328;19.972;2022-09-03T08:53:14;100899.75;;;19.36;66.16
73063;BME280;61230;46.328;19.972;2022-09-03T08:55:41;100895.63;;;19.48;67.46
73063;BME280;61230;46.328;19.972;2022-09-03T08:58:16;100903.06;;;19.24;68.61
73063;BME280;61230;46.328;19.972;2022-09-03T09:01:09;100888.94;;;19.74;66.80
73063;BME280;61230;46.328;19.972;2022-09-03T09:22:40;100887.87;;;21.08;63.07
73063;BME280;61230;46.328;19.972;2022-09-03T09:25:21;100895.84;;;21.36;61.65
73063;BME280;61230;46.328;19.972;2022-09-03T09:30:25;100887.16;;;21.28;61.36
73063;BME280;61230;46.328;19.972;2022-09-03T09:32:53;100887.25;;;20.79;61.67
73063;BME280;61230;46.328;19.972;2022-09-03T09:35:23;100886.78;;;20.69;62.49
73063;BME280;61230;46.328;19.972;2022-09-03T09:37:53;100889.59;;;21.23;62.01
73063;BME280;61230;46.328;19.972;2022-09-03T09:40:35;100894.03;;;21.09;60.28
73063;BME280;61230;46.328;19.972;2022-09-03T09:43:08;100899.00;;;20.56;62.25
73063;BME280;61230;46.328;19.972;2022-09-03T09:45:39;100890.31;;;20.48;63.85
73063;BME280;61230;46.328;19.972;2022-09-03T09:48:12;100892.16;;;20.75;62.65
73063;BME280;61230;46.328;19.972;2022-09-03T09:50:42;100901.09;;;20.61;64.45
73063;BME280;61230;46.328;19.972;2022-09-03T09:53:10;100892.69;;;21.26;61.36
73063;BME280;61230;46.328;19.972;2022-09-03T09:55:55;100883.25;;;20.96;61.77
73063;BME280;61230;46.328;19.972;2022-09-03T09:58:26;100890.09;;;21.39;59.56
73063;BME280;61230;46.328;19.972;2022-09-03T10:04:07;100889.38;;;21.65;59.37
73063;BME280;61230;46.328;19.972;2022-09-03T10:06:35;100898.06;;;21.80;58.57
73063;BME280;61230;46.328;19.972;2022-09-03T10:09:26;100896.56;;;21.64;58.64
73063;BME280;61230;46.328;19.972;2022-09-03T10:14:43;100884.78;;;22.46;57.10
73063;BME280;61230;46.328;19.972;2022-09-03T10:20:19;100893.81;;;21.45;60.65
73063;BME280;61230;46.328;19.972;2022-09-03T10:23:07;100895.31;;;20.85;60.31
73063;BME280;61230;46.328;19.972;2022-09-03T10:25:42;100890.06;;;20.43;61.37
73063;BME280;61230;46.328;19.972;2022-09-03T10:28:17;100897.03;;;20.65;61.18
73063;BME280;61230;46.328;19.972;2022-09-03T10:42:47;100890.16;;;21.65;59.50
73063;BME280;61230;46.328;19.972;2022-09-03T10:45:34;100888.81;;;20.94;60.98
73063;BME280;61230;46.328;19.972;2022-09-03T10:51:04;100891.47;;;21.29;63.08
73063;BME280;61230;46.328;19.972;2022-09-03T10:53:59;100882.25;;;21.31;60.25
73063;BME280;61230;46.328;19.972;2022-09-03T11:05:47;100878.19;;;22.61;56.05
73063;BME280;61230;46.328;19.972;2022-09-03T11:08:45;100878.59;;;22.84;54.83
73063;BME280;61230;46.328;19.972;2022-09-03T11:11:19;100884.25;;;23.40;54.60
73063;BME280;61230;46.328;19.972;2022-09-03T11:13:52;100873.12;;;23.75;54.29
73063;BME280;61230;46.328;19.972;2022-09-03T11:16:30;100875.75;;;23.30;54.22
73063;BME280;61230;46.328;19.972;2022-09-03T11:19:18;100885.06;;;23.79;52.83
73063;BME280;61230;46.328;19.972;2022-09-03T11:21:49;100877.03;;;24.10;53.59
73063;BME280;61230;46.328;19.972;2022-09-03T11:24:22;100883.69;;;24.01;54.08
73063;BME280;61230;46.328;19.972;2022-09-03T11:27:30;100881.13;;;23.43;52.41
73063;BME280;61230;46.328;19.972;2022-09-03T11:30:05;100887.66;;;22.51;55.27
73063;BME280;61230;46.328;19.972;2022-09-03T11:32:46;100884.53;;;23.06;54.96
73063;BME280;61230;46.328;19.972;2022-09-03T11:35:38;100876.44;;;23.70;53.27
73063;BME280;61230;46.328;19.972;2022-09-03T11:44:10;100874.75;;;23.76;53.29
73063;BME280;61230;46.328;19.972;2022-09-03T11:46:39;100869.59;;;23.23;51.06
73063;BME280;61230;46.328;19.972;2022-09-03T11:49:12;100868.63;;;23.62;49.79
73063;BME280;61230;46.328;19.972;2022-09-03T11:51:40;100867.19;;;23.02;52.09
73063;BME280;61230;46.328;19.972;2022-09-03T11:56:40;100861.63;;;24.24;51.13
73063;BME280;61230;46.328;19.972;2022-09-03T12:01:56;100854.63;;;24.23;50.53
73063;BME280;61230;46.328;19.972;2022-09-03T12:07:43;100864.66;;;24.58;48.67
73063;BME280;61230;46.328;19.972;2022-09-03T12:13:00;100872.31;;;24.12;49.08
73063;BME280;61230;46.328;19.972;2022-09-03T12:15:47;100865.00;;;23.37;50.98
73063;BME280;61230;46.328;19.972;2022-09-03T12:18:22;100870.53;;;23.55;50.93
73063;BME280;61230;46.328;19.972;2022-09-03T12:23:28;100858.31;;;24.28;50.56
73063;BME280;61230;46.328;19.972;2022-09-03T12:26:01;100857.09;;;24.24;49.22
73063;BME280;61230;46.328;19.972;2022-09-03T12:28:30;100860.34;;;24.76;48.91
73063;BME280;61230;46.328;19.972;2022-09-03T12:31:17;100856.38;;;24.11;48.82
73063;BME280;61230;46.328;19.972;2022-09-03T12:33:54;100849.34;;;24.34;49.25
73063;BME280;61230;46.328;19.972;2022-09-03T12:36:22;100857.19;;;24.61;49.53
73063;BME280;61230;46.328;19.972;2022-09-03T12:38:50;100851.34;;;24.88;48.65
73063;BME280;61230;46.328;19.972;2022-09-03T12:41:45;100851.88;;;24.72;49.27
73063;BME280;61230;46.328;19.972;2022-09-03T12:44:27;100843.34;;;25.00;49.29
73063;BME280;61230;46.328;19.972;2022-09-03T12:47:01;100844.75;;;23.79;49.15
73063;BME280;61230;46.328;19.972;2022-09-03T12:49:51;100836.47;;;24.61;49.40
73063;BME280;61230;46.328;19.972;2022-09-03T12:52:27;100830.28;;;24.79;48.87
73063;BME280;61230;46.328;19.972;2022-09-03T12:57:43;100823.47;;;24.83;47.25
73063;BME280;61230;46.328;19.972;2022-09-03T13:00:14;100829.28;;;24.80;48.40
73063;BME280;61230;46.328;19.972;2022-09-03T13:02:55;100825.78;;;24.73;47.86
73063;BME280;61230;46.328;19.972;2022-09-03T13:05:36;100826.09;;;24.65;48.40
73063;BME280;61230;46.328;19.972;2022-09-03T13:08:14;100820.97;;;24.07;48.05
73063;BME280;61230;46.328;19.972;2022-09-03T13:10:50;100817.84;;;24.17;48.36
73063;BME280;61230;46.328;19.972;2022-09-03T13:13:29;100816.94;;;24.47;49.51
73063;BME280;61230;46.328;19.972;2022-09-03T13:33:01;100799.69;;;24.12;46.51
73063;BME280;61230;46.328;19.972;2022-09-03T13:35:43;100801.28;;;23.57;48.53
73063;BME280;61230;46.328;19.972;2022-09-03T13:41:37;100797.38;;;23.53;48.27
73063;BME280;61230;46.328;19.972;2022-09-03T13:44:18;100794.50;;;24.11;47.97
73063;BME280;61230;46.328;19.972;2022-09-03T13:47:00;100794.91;;;24.14;47.26
73063;BME280;61230;46.328;19.972;2022-09-03T13:50:00;100797.34;;;23.91;47.03
73063;BME280;61230;46.328;19.972;2022-09-03T13:52:59;100799.75;;;24.48;46.41
73063;BME280;61230;46.328;19.972;2022-09-03T13:55:46;100795.66;;;23.90;48.55
73063;BME280;61230;46.328;19.972;2022-09-03T14:00:49;100790.22;;;24.03;49.04
73063;BME280;61230;46.328;19.972;2022-09-03T14:03:48;100791.56;;;23.87;50.64
73063;BME280;61230;46.328;19.972;2022-09-03T14:12:16;100804.72;;;23.26;49.32
73063;BME280;61230;46.328;19.972;2022-09-03T14:20:29;100796.19;;;22.85;51.48
73063;BME280;61230;46.328;19.972;2022-09-03T14:25:31;100789.50;;;23.14;50.25
73063;BME280;61230;46.328;19.972;2022-09-03T14:28:29;100793.09;;;22.95;50.65
73063;BME280;61230;46.328;19.972;2022-09-03T14:36:45;100784.62;;;22.91;49.87
73063;BME280;61230;46.328;19.972;2022-09-03T14:42:22;100783.19;;;22.95;49.15
73063;BME280;61230;46.328;19.972;2022-09-03T15:02:23;100783.19;;;22.88;48.65
73063;BME280;61230;46.328;19.972;2022-09-03T15:07:55;100787.28;;;23.04;50.60
73063;BME280;61230;46.328;19.972;2022-09-03T15:10:26;100778.84;;;22.94;48.83
73063;BME280;61230;46.328;19.972;2022-09-03T15:13:07;100782.09;;;23.03;49.12
73063;BME280;61230;46.328;19.972;2022-09-03T15:30:11;100778.91;;;22.68;49.08
73063;BME280;61230;46.328;19.972;2022-09-03T15:35:15;100779.69;;;22.88;49.00
73063;BME280;61230;46.328;19.972;2022-09-03T15:37:53;100771.84;;;22.86;49.09
73063;BME280;61230;46.328;19.972;2022-09-03T15:40:30;100772.91;;;22.79;49.28
73063;BME280;61230;46.328;19.972;2022-09-03T15:43:20;100765.91;;;22.71;49.07
73063;BME280;61230;46.328;19.972;2022-09-03T15:45:58;100772.94;;;22.72;49.29
73063;BME280;61230;46.328;19.972;2022-09-03T15:51:19;100782.03;;;22.52;49.99
73063;BME280;61230;46.328;19.972;2022-09-03T15:53:56;100771.09;;;22.47;49.47
73063;BME280;61230;46.328;19.972;2022-09-03T15:56:57;100775.25;;;22.23;49.24
73063;BME280;61230;46.328;19.972;2022-09-03T15:59:59;100770.31;;;22.26;49.79
73063;BME280;61230;46.328;19.972;2022-09-03T16:02:30;100765.38;;;22.04;50.64
73063;BME280;61230;46.328;19.972;2022-09-03T16:05:02;100768.47;;;21.94;50.44
73063;BME280;61230;46.328;19.972;2022-09-03T16:07:40;100764.12;;;22.00;50.85
73063;BME280;61230;46.328;19.972;2022-09-03T16:10:14;100763.75;;;21.96;51.04
73063;BME280;61230;46.328;19.972;2022-09-03T16:16:04;100780.59;;;21.84;51.84
73063;BME280;61230;46.328;19.972;2022-09-03T16:18:39;100781.41;;;21.84;51.35
73063;BME280;61230;46.328;19.972;2022-09-03T16:24:37;100783.44;;;21.69;52.42
73063;BME280;61230;46.328;19.972;2022-09-03T16:27:16;100774.19;;;21.65;52.19
73063;BME280;61230;46.328;19.972;2022-09-03T16:30:08;100780.16;;;21.54;52.81
73063;BME280;61230;46.328;19.972;2022-09-03T16:35:57;100773.91;;;21.40;52.99
73063;BME280;61230;46.328;19.972;2022-09-03T16:44:02;100772.22;;;21.19;57.04
73063;BME280;61230;46.328;19.972;2022-09-03T16:49:54;100785.28;;;21.01;58.20
73063;BME280;61230;46.328;19.972;2022-09-03T16:52:49;100787.72;;;20.90;58.78
73063;BME280;61230;46.328;19.972;2022-09-03T17:01:05;100784.50;;;20.67;60.05
73063;BME280;61230;46.328;19.972;2022-09-03T17:09:08;100792.69;;;20.31;62.08
73063;BME280;61230;46.328;19.972;2022-09-03T17:12:04;100796.97;;;20.25;62.44
73063;BME280;61230;46.328;19.972;2022-09-03T17:18:19;100803.22;;;20.11;63.96
73063;BME280;61230;46.328;19.972;2022-09-03T17:24:45;100812.94;;;19.76;65.74
73063;BME280;61230;46.328;19.972;2022-09-03T17:26:52;100807.44;;;19.78;65.74
73063;BME280;61230;46.328;19.972;2022-09-03T17:33:20;100816.41;;;19.56;67.22
73063;BME280;61230;46.328;19.972;2022-09-03T17:36:32;100819.34;;;19.39;68.37
73063;BME280;61230;46.328;19.972;2022-09-03T17:52:49;100835.06;;;19.20;68.32